createdAt,value
2023-01-01T14:21:32.046Z,99145.30
2023-01-01T14:24:03.819Z,99148.34
2023-01-01T14:27:04.409Z,99154.39
2023-01-01T14:29:35.215Z,99149.85
2023-01-01T14:32:23.395Z,99149.16
2023-01-01T14:35:02.330Z,99151.86
2023-01-01T14:37:31.987Z,99160.05
2023-01-01T14:40:26.333Z,99160.81
2023-01-01T14:43:02.711Z,99159.98
2023-01-01T14:45:34.735Z,99155.08
2023-01-01T14:48:06.566Z,99153.87
2023-01-01T14:50:36.631Z,99154.05
2023-01-01T14:53:09.783Z,99153.20
2023-01-01T14:55:41.219Z,99154.63
2023-01-01T14:58:13.659Z,99157.15
2023-01-01T15:00:42.586Z,99160.17
2023-01-01T15:03:16.506Z,99171.52
2023-01-01T15:05:46.757Z,99173.66
2023-01-01T15:08:21.133Z,99176.33
2023-01-01T15:10:50.142Z,99178.79
2023-01-01T15:13:21.334Z,99183.41
2023-01-01T15:15:54.617Z,99188.91
2023-01-01T15:18:40.376Z,99188.92
2023-01-01T15:21:15.843Z,99189.11
2023-01-01T15:23:53.047Z,99193.19
2023-01-01T15:26:29.829Z,99192.15
2023-01-01T15:29:00.287Z,99206.64
2023-01-01T15:31:37.593Z,99211.58
2023-01-01T15:34:20.865Z,99218.82
2023-01-01T15:36:50.621Z,99217.77
2023-01-01T15:39:19.971Z,99218.99
2023-01-01T15:41:50.213Z,99221.63
2023-01-01T15:44:30.305Z,99221.64
2023-01-01T15:47:12.821Z,99225.34
2023-01-01T15:49:43.545Z,99225.51
2023-01-01T15:52:55.185Z,99228.33
2023-01-01T15:55:29.647Z,99229.55
2023-01-01T15:57:59.338Z,99232.53
2023-01-01T16:00:32.618Z,99227.92
2023-01-01T16:03:04.857Z,99226.86
2023-01-01T16:05:33.664Z,99228.45
2023-01-01T16:08:03.941Z,99235.67
2023-01-01T16:10:33.038Z,99237.08
2023-01-01T16:13:04.531Z,99238.13
2023-01-01T16:15:34.838Z,99234.44
2023-01-01T16:18:05.204Z,99234.60
